createdAt,value
2023-04-02T00:00:36.970Z,2.67
2023-04-02T00:03:08.502Z,2.72
2023-04-02T00:05:52.255Z,2.84
2023-04-02T00:08:26.588Z,2.81
2023-04-02T00:10:59.961Z,2.81
2023-04-02T00:13:35.091Z,2.79
2023-04-02T00:16:06.569Z,2.81
2023-04-02T00:18:40.117Z,2.78
2023-04-02T00:21:21.340Z,2.78
2023-04-02T00:23:48.672Z,2.78
2023-04-02T00:26:31.474Z,2.80
2023-04-02T00:29:00.983Z,2.80
2023-04-02T00:31:28.335Z,2.85
2023-04-02T00:33:56.075Z,2.81
2023-04-02T00:36:26.790Z,2.75
2023-04-02T00:38:56.844Z,2.80
2023-04-02T00:41:29.762Z,2.85
2023-04-02T00:44:01.436Z,2.79
2023-04-02T00:46:34.591Z,2.82
2023-04-02T00:49:10.669Z,2.84
2023-04-02T00:51:44.449Z,2.91
2023-04-02T00:54:15.830Z,2.94
2023-04-02T00:56:45.665Z,2.94
2023-04-02T00:59:30.206Z,2.99
2023-04-02T01:02:18.584Z,3.00
2023-04-02T01:05:02.531Z,3.06
2023-04-02T01:07:54.080Z,3.08
2023-04-02T01:10:33.998Z,2.98
2023-04-02T01:13:38.829Z,3.06
2023-04-02T01:16:20.999Z,3.06
2023-04-02T01:18:56.776Z,3.12
2023-04-02T01:21:53.860Z,3.18
2023-04-02T01:24:24.640Z,3.19
2023-04-02T01:27:20.846Z,3.12
2023-04-02T01:29:57.742Z,3.18
2023-04-02T01:32:28.425Z,3.17
2023-04-02T01:34:56.335Z,3.14
2023-04-02T01:37:49.785Z,3.15
2023-04-02T01:40:38.532Z,3.17
2023-04-02T01:43:14.341Z,3.18
2023-04-02T01:45:41.568Z,3.23
2023-04-02T01:48:21.152Z,3.25
2023-04-02T01:50:51.676Z,3.31
2023-04-02T01:53:21.523Z,3.32
2023-04-02T01:55:59.508Z,3.25
2023-04-02T01:58:31.501Z,3.25
2023-04-02T02:01:08.357Z,3.28
2023-04-02T02:03:35.532Z,3.27
2023-04-02T02:06:03.424Z,3.29
2023-04-02T02:08:46.782Z,3.27
2023-04-02T02:11:21.541Z,3.28
2023-04-02T02:13:54.748Z,3.31
2023-04-02T02:16:22.887Z,3.28
2023-04-02T02:18:53.873Z,3.33
2023-04-02T02:21:45.787Z,3.25
2023-04-02T02:24:24.200Z,3.20
2023-04-02T02:26:57.054Z,3.26
2023-04-02T02:29:26.988Z,3.29
2023-04-02T02:31:56.301Z,3.26
2023-04-02T02:34:33.374Z,3.30
2023-04-02T02:37:07.385Z,3.29
2023-04-02T02:39:39.289Z,3.27
2023-04-02T02:42:24.344Z,3.28
2023-04-02T02:44:55.220Z,3.35
2023-04-02T02:47:28.273Z,3.34
2023-04-02T02:49:59.365Z,3.31
2023-04-02T02:52:30.970Z,3.33
2023-04-02T02:55:04.890Z,3.32
2023-04-02T02:58:03.432Z,3.28
2023-04-02T03:00:31.970Z,3.38
2023-04-02T03:02:58.868Z,3.38
2023-04-02T03:05:28.059Z,3.33
2023-04-02T03:07:57.228Z,3.30
2023-04-02T03:10:44.631Z,3.35
2023-04-02T03:13:26.998Z,3.35
2023-04-02T03:16:11.794Z,3.39
2023-04-02T03:18:44.195Z,3.39
2023-04-02T03:21:22.311Z,3.43
2023-04-02T03:24:00.729Z,3.35
2023-04-02T03:26:34.052Z,3.32
2023-04-02T03:29:16.410Z,3.34
2023-04-02T03:32:06.082Z,3.30
2023-04-02T03:34:37.805Z,3.36
2023-04-02T03:37:10.959Z,3.36
2023-04-02T03:39:46.574Z,3.38
2023-04-02T03:42:26.058Z,3.35
2023-04-02T03:44:56.034Z,3.45
2023-04-02T03:47:40.102Z,3.43
2023-04-02T03:50:35.490Z,3.32
2023-04-02T03:53:04.081Z,3.39
2023-04-02T03:55:35.489Z,3.34
2023-04-02T03:58:44.212Z,3.40
2023-04-02T04:01:17.656Z,3.36
2023-04-02T04:03:53.971Z,3.38
2023-04-02T04:06:27.503Z,3.35
2023-04-02T04:08:59.574Z,3.39
2023-04-02T04:11:33.978Z,3.40
2023-04-02T04:14:13.549Z,3.39
2023-04-02T04:16:59.846Z,3.44
2023-04-02T04:20:08.278Z,3.44
2023-04-02T04:22:35.009Z,3.36
2023-04-02T04:25:18.089Z,3.38
2023-04-02T04:27:57.348Z,3.46
2023-04-02T04:30:27.305Z,3.44
2023-04-02T04:33:10.898Z,3.47
2023-04-02T04:38:28.556Z,3.53
2023-04-02T04:40:59.618Z,3.53
2023-04-02T04:43:48.343Z,3.54
2023-04-02T04:46:25.757Z,3.61
2023-04-02T04:49:09.065Z,3.60
2023-04-02T04:51:42.140Z,3.58
2023-04-02T04:54:13.620Z,3.54
2023-04-02T04:56:44.736Z,3.52
2023-04-02T04:59:26.257Z,3.56
2023-04-02T05:02:10.599Z,3.61
2023-04-02T05:04:40.863Z,3.57
2023-04-02T05:07:17.160Z,3.63
2023-04-02T05:09:52.829Z,3.67
2023-04-02T05:12:40.431Z,3.65
2023-04-02T05:15:24.815Z,3.68
2023-04-02T05:18:31.248Z,3.70
2023-04-02T05:21:13.649Z,3.67
2023-04-02T05:24:00.927Z,3.64
2023-04-02T05:26:39.530Z,3.65
2023-04-02T05:29:13.456Z,3.60
2023-04-02T05:31:49.867Z,3.71
2023-04-02T05:34:26.212Z,3.76
2023-04-02T05:36:55.594Z,3.76
2023-04-02T05:39:25.112Z,3.72
2023-04-02T05:42:02.801Z,3.76
2023-04-02T05:44:37.839Z,3.79
2023-04-02T05:47:27.551Z,3.73
2023-04-02T05:50:01.087Z,3.65
2023-04-02T05:52:34.051Z,3.76
2023-04-02T05:55:22.030Z,3.82
2023-04-02T05:58:21.140Z,3.89
2023-04-02T06:01:07.616Z,3.83
2023-04-02T06:03:57.686Z,3.93
2023-04-02T06:06:41.437Z,3.90
2023-04-02T06:09:15.311Z,3.94
2023-04-02T06:11:49.527Z,3.98
2023-04-02T06:14:17.766Z,3.85
2023-04-02T06:16:46.304Z,4.10
2023-04-02T06:19:23.723Z,7.94
2023-04-02T06:21:59.017Z,7.34
2023-04-02T06:24:29.330Z,5.16
2023-04-02T06:27:02.904Z,4.60
2023-04-02T06:29:40.099Z,4.54
2023-04-02T06:32:08.796Z,4.79
2023-04-02T06:34:38.855Z,4.49
2023-04-02T06:37:33.298Z,4.54
2023-04-02T06:40:01.071Z,4.58
2023-04-02T06:42:35.327Z,4.48
2023-04-02T06:45:03.356Z,4.36
2023-04-02T06:47:34.447Z,4.48
2023-04-02T06:50:06.809Z,4.47
2023-04-02T06:52:40.087Z,4.50
2023-04-02T06:55:20.705Z,4.57
2023-04-02T06:57:48.405Z,4.43
2023-04-02T07:00:21.838Z,4.64
2023-04-02T07:02:49.918Z,4.83
2023-04-02T07:05:17.103Z,5.34
2023-04-02T07:07:44.555Z,5.12
2023-04-02T07:10:12.350Z,5.49
2023-04-02T07:12:39.194Z,5.23
2023-04-02T07:15:07.126Z,5.63
2023-04-02T07:17:34.289Z,6.44
2023-04-02T07:20:01.578Z,6.87
2023-04-02T07:22:28.852Z,6.95
2023-04-02T07:24:55.953Z,7.82
2023-04-02T07:27:23.119Z,7.89
2023-04-02T07:29:50.425Z,7.71
2023-04-02T07:32:17.810Z,7.89
2023-04-02T07:34:45.495Z,7.85
2023-04-02T07:37:14.498Z,8.46
2023-04-02T07:39:41.548Z,8.26
2023-04-02T07:42:15.500Z,7.26
2023-04-02T07:44:42.958Z,6.75
2023-04-02T07:47:10.743Z,6.40
2023-04-02T07:49:37.973Z,6.65
2023-04-02T07:52:05.349Z,6.42
2023-04-02T07:54:32.651Z,6.31
2023-04-02T07:56:59.633Z,6.40
2023-04-02T07:59:26.867Z,6.23
2023-04-02T08:01:54.486Z,6.17
2023-04-02T08:04:22.901Z,6.05
2023-04-02T08:06:50.413Z,6.17
2023-04-02T08:09:17.708Z,6.29
2023-04-02T08:11:46.400Z,6.27
2023-04-02T08:14:13.780Z,6.78
2023-04-02T08:16:50.945Z,6.84
2023-04-02T08:19:18.960Z,7.04
2023-04-02T08:21:48.074Z,7.13
2023-04-02T08:24:15.031Z,7.58
2023-04-02T08:26:43.981Z,7.46
2023-04-02T08:29:12.537Z,7.89
2023-04-02T08:31:39.982Z,7.93
2023-04-02T08:34:07.929Z,7.56
2023-04-02T08:36:39.528Z,7.47
2023-04-02T08:39:11.875Z,7.41
2023-04-02T08:41:49.613Z,7.00
2023-04-02T08:44:28.183Z,6.94
2023-04-02T08:47:03.272Z,6.74
2023-04-02T08:49:35.909Z,7.22
2023-04-02T08:52:02.709Z,6.72
2023-04-02T08:54:34.799Z,6.61
2023-04-02T08:57:09.649Z,6.63
2023-04-02T08:59:43.232Z,6.53
2023-04-02T09:02:37.838Z,7.25
2023-04-02T09:05:08.263Z,7.27
2023-04-02T09:07:35.294Z,8.47
2023-04-02T09:10:02.810Z,7.46
2023-04-02T09:12:31.793Z,7.00
2023-04-02T09:15:11.116Z,8.19
2023-04-02T09:17:50.735Z,9.53
2023-04-02T09:20:29.558Z,10.20
2023-04-02T09:22:57.901Z,9.82
2023-04-02T09:25:28.493Z,10.07
2023-04-02T09:27:57.989Z,10.99
2023-04-02T09:30:47.489Z,9.98
2023-04-02T09:33:14.825Z,8.93
2023-04-02T09:35:51.293Z,8.58
2023-04-02T09:38:23.371Z,8.42
2023-04-02T09:40:53.863Z,9.52
2023-04-02T09:43:22.031Z,10.29
2023-04-02T09:46:04.926Z,10.42
2023-04-02T09:48:44.039Z,11.14
2023-04-02T09:51:24.843Z,11.62
2023-04-02T09:54:06.891Z,12.47
2023-04-02T09:56:36.275Z,12.10
2023-04-02T09:59:03.268Z,11.53
2023-04-02T10:01:32.327Z,11.83
2023-04-02T10:04:00.172Z,11.51
2023-04-02T10:06:31.337Z,10.60
2023-04-02T10:08:58.506Z,11.77
2023-04-02T10:11:43.764Z,12.03
2023-04-02T10:14:25.734Z,11.70
2023-04-02T10:17:19.137Z,10.44
2023-04-02T10:20:00.793Z,11.64
2023-04-02T10:22:28.426Z,12.93
2023-04-02T10:24:55.498Z,13.89
2023-04-02T10:27:52.314Z,14.59
2023-04-02T10:30:32.572Z,14.97
2023-04-02T10:32:59.958Z,14.45
2023-04-02T10:35:40.823Z,13.59
2023-04-02T10:38:26.528Z,12.76
2023-04-02T10:41:00.595Z,13.51
2023-04-02T10:43:41.188Z,12.78
2023-04-02T10:46:19.185Z,12.07
2023-04-02T10:48:57.232Z,14.54
2023-04-02T10:51:52.154Z,12.93
2023-04-02T10:54:28.939Z,13.70
2023-04-02T10:57:05.044Z,13.64
2023-04-02T10:59:37.358Z,11.89
2023-04-02T11:02:20.718Z,12.40
2023-04-02T11:04:48.312Z,13.50
2023-04-02T11:07:21.381Z,14.20
2023-04-02T11:09:52.298Z,14.00
2023-04-02T11:12:27.832Z,13.29
2023-04-02T11:14:56.534Z,11.48
2023-04-02T11:17:24.609Z,11.74
2023-04-02T11:19:52.759Z,11.66
2023-04-02T11:22:23.336Z,11.29
2023-04-02T11:24:56.037Z,12.45
2023-04-02T11:27:29.193Z,11.52
2023-04-02T11:30:08.204Z,11.12
2023-04-02T11:32:43.377Z,10.74
2023-04-02T11:35:32.493Z,10.93
2023-04-02T11:38:12.368Z,12.10
2023-04-02T11:40:52.935Z,12.77
2023-04-02T11:43:36.044Z,13.04
2023-04-02T11:46:34.327Z,11.37
2023-04-02T11:49:36.311Z,10.75
2023-04-02T11:52:12.037Z,11.86
2023-04-02T11:54:40.789Z,12.62
2023-04-02T11:57:30.774Z,13.65
2023-04-02T12:00:16.271Z,11.45
2023-04-02T12:03:04.546Z,11.13
2023-04-02T12:05:48.232Z,12.04
2023-04-02T12:08:54.332Z,11.92
2023-04-02T12:11:35.859Z,11.05
2023-04-02T12:14:26.988Z,12.14
2023-04-02T12:16:54.530Z,12.34
2023-04-02T12:19:24.179Z,13.16
2023-04-02T12:21:56.491Z,13.84
2023-04-02T12:24:26.809Z,13.35
2023-04-02T12:27:14.991Z,13.85
2023-04-02T12:29:42.994Z,13.55
2023-04-02T12:32:29.572Z,12.58
2023-04-02T12:34:58.924Z,13.51
2023-04-02T12:37:30.632Z,13.46
2023-04-02T12:40:15.698Z,12.61
2023-04-02T12:42:42.567Z,12.30
2023-04-02T12:45:22.599Z,13.41
2023-04-02T12:47:50.618Z,13.41
2023-04-02T12:50:18.066Z,14.10
2023-04-02T12:52:47.580Z,12.84
2023-04-02T12:55:24.576Z,13.49
2023-04-02T12:57:59.496Z,14.08
2023-04-02T13:00:29.850Z,14.49
2023-04-02T13:03:17.532Z,13.02
2023-04-02T13:05:52.355Z,12.16
2023-04-02T13:08:28.029Z,11.39
2023-04-02T13:11:06.230Z,11.19
2023-04-02T13:13:39.481Z,10.89
2023-04-02T13:16:20.766Z,12.21
2023-04-02T13:18:49.363Z,12.91
2023-04-02T13:21:16.885Z,12.77
2023-04-02T13:23:46.147Z,11.72
2023-04-02T13:26:31.580Z,12.10
2023-04-02T13:29:00.455Z,12.12
2023-04-02T13:31:32.588Z,11.92
2023-04-02T13:33:59.984Z,11.48
2023-04-02T13:36:29.271Z,12.06
2023-04-02T13:38:57.417Z,13.12
2023-04-02T13:41:27.420Z,13.43
2023-04-02T13:43:57.254Z,12.81
2023-04-02T13:46:27.698Z,12.22
2023-04-02T13:48:56.697Z,12.02
2023-04-02T13:51:31.823Z,11.70
2023-04-02T13:53:59.557Z,11.41
2023-04-02T13:56:27.153Z,12.44
2023-04-02T13:58:54.666Z,12.69
2023-04-02T14:01:23.692Z,12.45
2023-04-02T14:03:53.000Z,13.29
2023-04-02T14:06:45.804Z,12.85
2023-04-02T14:09:37.566Z,12.93
2023-04-02T14:12:23.807Z,13.00
2023-04-02T14:15:03.335Z,12.99
2023-04-02T14:17:51.889Z,12.37
2023-04-02T14:20:30.587Z,11.45
2023-04-02T14:23:06.482Z,11.24
2023-04-02T14:25:46.282Z,11.63
2023-04-02T14:28:47.409Z,12.33
2023-04-02T14:31:24.932Z,12.48
2023-04-02T14:33:56.806Z,12.61
2023-04-02T14:36:26.838Z,11.42
2023-04-02T14:39:18.152Z,9.84
2023-04-02T14:41:57.040Z,10.71
2023-04-02T14:44:27.761Z,11.68
2023-04-02T14:47:02.108Z,12.41
2023-04-02T14:49:31.462Z,11.25
2023-04-02T14:52:15.410Z,11.17
2023-04-02T14:55:07.296Z,10.55
2023-04-02T14:57:48.872Z,10.01
2023-04-02T15:00:40.248Z,10.01
2023-04-02T15:03:25.852Z,9.48
2023-04-02T15:06:06.106Z,9.62
2023-04-02T15:08:50.106Z,9.44
2023-04-02T15:11:26.013Z,8.85
2023-04-02T15:14:17.892Z,8.60
2023-04-02T15:16:45.071Z,8.78
2023-04-02T15:19:17.971Z,8.58
2023-04-02T15:22:15.400Z,9.00
2023-04-02T15:24:56.951Z,9.18
2023-04-02T15:27:42.628Z,9.04
2023-04-02T15:30:29.382Z,8.57
2023-04-02T15:33:19.958Z,8.45
2023-04-02T15:36:01.539Z,8.81
2023-04-02T15:38:37.976Z,8.81
2023-04-02T15:41:26.355Z,9.40
2023-04-02T15:44:16.144Z,10.06
2023-04-02T15:47:07.925Z,10.13
2023-04-02T15:49:48.800Z,10.41
2023-04-02T15:52:19.889Z,10.18
2023-04-02T15:54:59.883Z,9.72
2023-04-02T15:57:46.159Z,9.95
2023-04-02T16:00:12.944Z,10.00
2023-04-02T16:02:47.941Z,10.05
2023-04-02T16:05:38.730Z,10.13
2023-04-02T16:08:22.671Z,9.81
2023-04-02T16:10:49.411Z,9.83
2023-04-02T16:13:30.243Z,9.89
2023-04-02T16:16:08.172Z,9.74
2023-04-02T16:19:04.782Z,9.72
2023-04-02T16:21:34.871Z,10.23
2023-04-02T16:24:01.773Z,10.09
2023-04-02T16:26:40.495Z,9.88
2023-04-02T16:29:19.730Z,9.47
2023-04-02T16:32:06.630Z,9.53
2023-04-02T16:34:57.665Z,9.45
2023-04-02T16:37:38.255Z,9.65
2023-04-02T16:40:39.159Z,9.88
2023-04-02T16:43:18.386Z,9.08
2023-04-02T16:46:03.657Z,8.46
2023-04-02T16:48:57.139Z,8.50
2023-04-02T16:51:47.232Z,8.08
2023-04-02T16:54:51.152Z,7.82
2023-04-02T16:57:24.213Z,7.91
2023-04-02T17:00:15.519Z,7.41
2023-04-02T17:03:13.597Z,6.98
2023-04-02T17:05:49.648Z,6.89
2023-04-02T17:08:25.491Z,6.54
2023-04-02T17:11:05.646Z,6.39
2023-04-02T17:13:41.686Z,6.15
2023-04-02T17:16:18.713Z,6.20
2023-04-02T17:18:49.111Z,5.84
2023-04-02T17:21:22.819Z,5.77
2023-04-02T17:23:57.176Z,5.68
2023-04-02T17:26:34.719Z,5.53
2023-04-02T17:29:08.141Z,5.53
2023-04-02T17:31:37.557Z,5.55
2023-04-02T17:34:13.825Z,5.36
2023-04-02T17:36:53.620Z,5.43
2023-04-02T17:39:29.258Z,5.34
2023-04-02T17:42:07.559Z,5.24
2023-04-02T17:44:49.985Z,5.22
2023-04-02T17:47:22.129Z,5.10
2023-04-02T17:50:29.417Z,4.98
2023-04-02T17:53:30.310Z,5.01
2023-04-02T17:56:03.647Z,4.98
2023-04-02T17:58:40.751Z,5.01
2023-04-02T18:01:28.492Z,4.95
2023-04-02T18:04:12.462Z,4.73
2023-04-02T18:06:39.190Z,4.78
2023-04-02T18:09:39.441Z,4.66
2023-04-02T18:12:24.709Z,4.66
2023-04-02T18:15:32.574Z,4.64
2023-04-02T18:18:05.267Z,4.54
2023-04-02T18:20:39.516Z,4.47
2023-04-02T18:23:24.641Z,4.52
2023-04-02T18:26:15.025Z,4.48
2023-04-02T18:28:45.036Z,4.39
2023-04-02T18:31:42.740Z,4.46
2023-04-02T18:34:52.076Z,4.35
2023-04-02T18:37:34.557Z,4.22
2023-04-02T18:40:13.503Z,4.56
2023-04-02T18:43:04.503Z,4.14
2023-04-02T18:45:41.386Z,4.12
2023-04-02T18:48:20.286Z,4.04
2023-04-02T18:50:49.008Z,4.32
2023-04-02T18:53:24.051Z,4.06
2023-04-02T18:55:53.949Z,4.01
2023-04-02T18:58:27.159Z,3.99
2023-04-02T19:00:54.332Z,3.90
2023-04-02T19:03:52.543Z,3.88
2023-04-02T19:06:28.840Z,3.89
2023-04-02T19:09:15.199Z,3.90
2023-04-02T19:11:42.127Z,4.73
2023-04-02T19:14:19.793Z,5.21
2023-04-02T19:17:04.257Z,4.52
2023-04-02T19:20:03.239Z,4.07
2023-04-02T19:22:39.868Z,3.92
2023-04-02T19:25:28.358Z,3.85
2023-04-02T19:28:13.574Z,3.78
2023-04-02T19:31:09.507Z,3.62
2023-04-02T19:33:52.468Z,3.54
2023-04-02T19:36:30.834Z,3.50
2023-04-02T19:39:17.720Z,3.42
2023-04-02T19:41:51.499Z,3.33
2023-04-02T19:44:19.065Z,3.21
2023-04-02T19:46:46.669Z,3.18
2023-04-02T19:49:34.637Z,3.13
2023-04-02T19:52:01.532Z,3.12
2023-04-02T19:54:28.376Z,3.25
2023-04-02T19:56:55.563Z,3.12
2023-04-02T19:59:22.480Z,3.06
2023-04-02T20:01:49.270Z,3.00
2023-04-02T20:04:16.371Z,2.90
2023-04-02T20:06:43.291Z,2.76
2023-04-02T20:09:10.117Z,2.78
2023-04-02T20:11:38.298Z,2.81
2023-04-02T20:14:05.830Z,2.78
2023-04-02T20:16:33.884Z,2.71
2023-04-02T20:19:00.694Z,2.72
2023-04-02T20:21:27.851Z,2.78
2023-04-02T20:23:55.557Z,2.71
2023-04-02T20:26:22.801Z,2.73
2023-04-02T20:28:49.671Z,2.71
2023-04-02T20:31:18.224Z,2.64
2023-04-02T20:33:45.562Z,2.61
2023-04-02T20:36:17.297Z,2.61
2023-04-02T20:38:45.449Z,2.60
2023-04-02T20:41:12.389Z,2.57
2023-04-02T20:43:40.659Z,2.60
2023-04-02T20:46:10.116Z,2.49
2023-04-02T20:48:37.942Z,2.44
2023-04-02T20:51:06.460Z,2.34
2023-04-02T20:53:34.940Z,2.47
2023-04-02T20:56:05.547Z,2.40
2023-04-02T20:58:33.331Z,2.47
2023-04-02T21:01:27.578Z,2.35
2023-04-02T21:03:59.448Z,2.27
2023-04-02T21:06:29.641Z,1.97
2023-04-02T21:08:56.444Z,1.94
2023-04-02T21:11:24.113Z,1.93
2023-04-02T21:13:51.041Z,1.98
2023-04-02T21:16:21.670Z,2.01
2023-04-02T21:18:51.305Z,1.92
2023-04-02T21:21:18.973Z,1.93
2023-04-02T21:23:46.464Z,1.91
2023-04-02T21:26:15.732Z,1.98
2023-04-02T21:28:44.278Z,1.84
2023-04-02T21:31:17.621Z,1.73
2023-04-02T21:33:50.857Z,1.87
2023-04-02T21:36:21.640Z,1.86
2023-04-02T21:38:56.759Z,1.87
2023-04-02T21:41:26.540Z,1.92
2023-04-02T21:43:54.233Z,1.97
2023-04-02T21:46:24.804Z,1.93
2023-04-02T21:48:53.268Z,1.85
2023-04-02T21:51:26.343Z,1.86
2023-04-02T21:53:56.032Z,1.93
2023-04-02T21:56:31.501Z,1.84
2023-04-02T21:58:59.014Z,1.83
2023-04-02T22:01:28.089Z,1.78
2023-04-02T22:03:56.545Z,1.75
2023-04-02T22:06:26.376Z,1.75
2023-04-02T22:08:56.254Z,1.75
2023-04-02T22:11:26.560Z,1.83
2023-04-02T22:13:54.035Z,1.73
2023-04-02T22:16:26.574Z,1.72
2023-04-02T22:18:56.772Z,1.66
2023-04-02T22:21:24.104Z,1.63
2023-04-02T22:23:51.168Z,1.67
2023-04-02T22:26:19.864Z,1.62
2023-04-02T22:28:47.154Z,1.51
2023-04-02T22:31:19.818Z,1.51
2023-04-02T22:33:47.331Z,1.50
2023-04-02T22:36:15.098Z,1.41
2023-04-02T22:38:42.424Z,1.39
2023-04-02T22:41:18.168Z,1.31
2023-04-02T22:43:45.893Z,1.27
2023-04-02T22:46:14.736Z,1.19
2023-04-02T22:48:42.458Z,1.24
2023-04-02T22:51:11.499Z,1.29
2023-04-02T22:53:39.208Z,1.28
2023-04-02T22:56:14.850Z,1.24
2023-04-02T22:58:42.857Z,1.28
2023-04-02T23:01:17.673Z,1.25
2023-04-02T23:03:44.559Z,1.21
2023-04-02T23:06:17.290Z,1.18
2023-04-02T23:08:45.064Z,1.20
2023-04-02T23:11:21.950Z,1.20
2023-04-02T23:13:50.449Z,1.20
2023-04-02T23:16:18.454Z,1.10
2023-04-02T23:18:49.322Z,0.84
2023-04-02T23:21:17.840Z,0.78
2023-04-02T23:23:45.954Z,0.66
2023-04-02T23:26:18.917Z,0.68
2023-04-02T23:28:45.993Z,0.64
2023-04-02T23:31:16.685Z,0.68
2023-04-02T23:33:44.487Z,0.65
2023-04-02T23:36:34.260Z,0.66
2023-04-02T23:39:09.545Z,0.65
2023-04-02T23:41:38.333Z,0.51
2023-04-02T23:44:05.764Z,0.33
2023-04-02T23:46:36.008Z,0.35
2023-04-02T23:49:03.710Z,0.24
2023-04-02T23:51:32.194Z,0.24
2023-04-02T23:53:59.012Z,0.28
2023-04-02T23:56:26.414Z,0.25
2023-04-02T23:58:53.298Z,0.25
